This is the latest recevied weather packets stored in our database for station/object SP3PDK-1. If no packets are shown the sender has not sent any weather packets the latest 10 day(s).
| Time | Temp. | Humidity | Pressure | Rain* | Wind** | Luminosity | Snow |
|---|---|---|---|---|---|---|---|
| 1778195656 | 12.78° C | 88% | 1016.8 hPa | - | - | - | - |
| 1778195056 | 12.22° C | 89% | 1016.9 hPa | - | - | - | - |
| 1778194454 | 12.78° C | 88% | 1016.9 hPa | - | - | - | - |
| 1778193855 | 12.78° C | 89% | 1016.8 hPa | - | - | - | - |
| 1778193259 | 13.33° C | 87% | 1016.8 hPa | - | - | - | - |
| 1778192658 | 12.78° C | 87% | 1016.7 hPa | - | - | - | - |
| 1778192053 | 12.78° C | 88% | 1016.8 hPa | - | - | - | - |
| 1778191457 | 12.78° C | 86% | 1016.6 hPa | - | - | - | - |
| 1778190858 | 12.78° C | 89% | 1016.7 hPa | - | - | - | - |
| 1778189058 | 13.33° C | 85% | 1016.5 hPa | - | - | - | - |
| 1778188456 | 13.33° C | 86% | 1016.4 hPa | - | - | - | - |
| 1778187856 | 12.78° C | 87% | 1016.3 hPa | - | - | - | - |
| 1778187258 | 13.33° C | 86% | 1016.3 hPa | - | - | - | - |
| 1778186658 | 13.33° C | 85% | 1016.2 hPa | - | - | - | - |
| 1778186056 | 13.33° C | 84% | 1016.2 hPa | - | - | - | - |
| 1778185458 | 13.33° C | 83% | 1016.2 hPa | - | - | - | - |
| 1778184254 | 13.33° C | 83% | 1016 hPa | - | - | - | - |
| 1778183655 | 13.33° C | 83% | 1015.9 hPa | - | - | - | - |
| 1778183054 | 13.89° C | 81% | 1015.8 hPa | - | - | - | - |
| 1778182453 | 13.33° C | 85% | 1015.8 hPa | - | - | - | - |
| 1778181854 | 13.33° C | 85% | 1015.7 hPa | - | - | - | - |
| 1778181258 | 12.22° C | 90% | 1015.4 hPa | - | - | - | - |
| 1778180059 | 12.78° C | 88% | 1015.3 hPa | - | - | - | - |
| 1778178858 | 12.78° C | 87% | 1015.2 hPa | - | - | - | - |
| 1778178258 | 12.78° C | 87% | 1015.2 hPa | - | - | - | - |
* Rain since midnight (hover to see other rain measurements)
** Current wind speed in m/s (hover to see current wind gust speed)